createdAt,value
2018-10-03T00:01:08.125Z,3.37
2018-10-03T00:01:08.218Z,2.06
2018-10-03T00:07:03.144Z,1.93
2018-10-03T00:12:58.140Z,2.52
2018-10-03T00:18:53.142Z,3.59
2018-10-03T00:24:48.170Z,1.76
2018-10-03T00:30:43.164Z,1.3
2018-10-03T00:36:38.150Z,1.19
2018-10-03T00:42:33.213Z,1.46
2018-10-03T00:54:23.211Z,1.19
2018-10-03T00:54:23.247Z,1.58
2018-10-03T01:00:18.211Z,4.98
2018-10-03T01:06:13.206Z,1.5
2018-10-03T01:12:08.201Z,2.71
2018-10-03T01:18:03.218Z,1.13
2018-10-03T01:23:58.224Z,7.31
2018-10-03T01:29:53.222Z,1.21
2018-10-03T01:35:48.241Z,1.35
2018-10-03T01:41:43.256Z,2.7
2018-10-03T01:47:38.266Z,6.71
2018-10-03T01:53:33.265Z,1.75
2018-10-03T01:59:28.270Z,1.61
2018-10-03T02:05:23.290Z,1.62
2018-10-03T02:11:18.279Z,4.71
2018-10-03T02:17:13.266Z,2.32
2018-10-03T02:23:08.272Z,3.38
2018-10-03T02:29:03.276Z,1.24
2018-10-03T02:34:58.273Z,2.89
2018-10-03T02:40:53.255Z,4.2
2018-10-03T02:46:48.253Z,2.37
2018-10-03T02:52:43.279Z,4.35
2018-10-03T02:58:38.304Z,2.74
2018-10-03T03:04:33.268Z,1.44
2018-10-03T03:10:28.302Z,1.67
2018-10-03T03:16:23.331Z,1.4
2018-10-03T03:22:18.263Z,2.08
2018-10-03T03:28:13.246Z,2.22
2018-10-03T03:34:08.293Z,3.23
2018-10-03T03:40:03.300Z,3.23
2018-10-03T03:45:58.267Z,2.92
2018-10-03T03:51:53.269Z,4.97
2018-10-03T03:57:48.252Z,1.67
2018-10-03T04:03:43.270Z,2.17
2018-10-03T04:09:38.261Z,2.86
2018-10-03T04:15:33.268Z,1.6
2018-10-03T04:21:28.273Z,3.81
2018-10-03T04:27:23.292Z,3.21
2018-10-03T04:33:18.317Z,2.44
2018-10-03T04:39:13.300Z,2.37
2018-10-03T04:45:08.331Z,3.29
2018-10-03T04:51:03.308Z,2.15
2018-10-03T04:56:58.345Z,1.79
2018-10-03T05:02:53.346Z,4.45
2018-10-03T05:08:48.315Z,2.71
2018-10-03T05:14:43.312Z,2.09
2018-10-03T05:20:38.317Z,2.13
2018-10-03T05:26:33.360Z,3.47
2018-10-03T05:32:28.326Z,3.32
2018-10-03T05:38:23.299Z,6.17
2018-10-03T05:44:18.324Z,2.4
2018-10-03T05:50:13.326Z,3.7
2018-10-03T05:56:08.317Z,5.43
2018-10-03T06:02:03.368Z,2.65
2018-10-03T06:07:58.338Z,6.21
2018-10-03T06:13:53.419Z,3.61
2018-10-03T06:19:48.342Z,3.9
2018-10-03T06:25:43.378Z,4.4
2018-10-03T06:31:38.369Z,6.71
2018-10-03T06:37:33.382Z,5.14
2018-10-03T06:43:28.382Z,7.04
2018-10-03T06:49:23.376Z,6.5
2018-10-03T06:55:18.396Z,7.08
2018-10-03T07:01:13.371Z,7.02
2018-10-03T07:07:08.408Z,12.73
2018-10-03T07:13:03.413Z,8.23
2018-10-03T07:18:58.394Z,6.14
2018-10-03T07:24:53.377Z,7.17
2018-10-03T07:30:48.406Z,6.32
2018-10-03T07:36:43.386Z,6.03
2018-10-03T07:42:38.459Z,5.74
2018-10-03T07:48:33.409Z,9.52
2018-10-03T07:54:28.393Z,9.67
2018-10-03T08:00:23.384Z,4.57
2018-10-03T08:06:18.396Z,9.05
2018-10-03T08:12:13.440Z,8.02
2018-10-03T08:18:08.431Z,6.36
2018-10-03T08:24:03.399Z,5.68
2018-10-03T08:29:58.468Z,4.97
2018-10-03T08:35:53.438Z,7.56
2018-10-03T08:41:48.448Z,9.72
2018-10-03T08:47:43.419Z,4.11
2018-10-03T08:53:38.513Z,5.86
2018-10-03T08:59:33.459Z,2.55
2018-10-03T09:05:28.445Z,4.71
2018-10-03T09:11:23.492Z,2.64
2018-10-03T09:17:18.433Z,4.26
2018-10-03T09:23:13.471Z,4.39
2018-10-03T09:29:08.461Z,5.81
2018-10-03T09:35:03.478Z,6.99
2018-10-03T09:40:58.489Z,7.88
2018-10-03T09:46:53.471Z,10.68
2018-10-03T09:52:48.486Z,8.18
2018-10-03T09:58:43.503Z,8.12
2018-10-03T10:04:38.457Z,6.16
2018-10-03T10:10:33.470Z,7.25
2018-10-03T10:16:28.494Z,6.94
2018-10-03T10:22:23.512Z,5.93
2018-10-03T10:28:18.534Z,4.5
2018-10-03T10:34:13.507Z,3.67
2018-10-03T10:40:08.640Z,3.67
2018-10-03T10:46:03.492Z,4.23
2018-10-03T10:51:58.505Z,3.21
2018-10-03T10:57:53.490Z,2.2
2018-10-03T11:03:48.563Z,3.58
2018-10-03T11:09:43.561Z,1.54
2018-10-03T11:15:38.614Z,1.68
2018-10-03T11:21:33.517Z,1.12
2018-10-03T11:27:28.546Z,1.26
2018-10-03T11:33:23.570Z,1.06
2018-10-03T11:39:18.599Z,2.61
2018-10-03T11:45:13.537Z,2.15
2018-10-03T11:51:08.533Z,0.87
2018-10-03T11:57:03.626Z,1.76
2018-10-03T12:02:58.579Z,3.01
2018-10-03T12:08:53.547Z,0.99
2018-10-03T12:14:48.569Z,1.31
2018-10-03T12:20:43.561Z,1.91
2018-10-03T12:26:38.581Z,1.03
2018-10-03T12:32:33.572Z,0.91
2018-10-03T12:38:28.582Z,1.66
2018-10-03T12:44:23.624Z,1.77
2018-10-03T12:50:18.577Z,1.04
2018-10-03T12:56:13.588Z,1.56
2018-10-03T13:02:08.583Z,0.96
2018-10-03T13:08:03.607Z,1.15
2018-10-03T13:13:58.626Z,0.84
2018-10-03T13:19:53.615Z,1.64
2018-10-03T13:25:48.609Z,1.99
2018-10-03T13:31:43.585Z,3.83
2018-10-03T13:37:38.600Z,1.44
2018-10-03T13:43:33.600Z,0.92
2018-10-03T13:49:28.620Z,1.19
2018-10-03T13:55:23.634Z,0.74
2018-10-03T14:01:18.649Z,0.66
2018-10-03T14:07:13.627Z,1.21
2018-10-03T14:13:08.686Z,0.85
2018-10-03T14:19:03.658Z,0.92
2018-10-03T14:24:58.640Z,1.93
2018-10-03T14:30:53.684Z,1.37
2018-10-03T14:36:48.653Z,0.82
2018-10-03T14:42:43.633Z,5.15
2018-10-03T14:48:38.694Z,0.68
2018-10-03T14:54:33.704Z,1.73
2018-10-03T15:00:28.654Z,0.73
2018-10-03T15:06:23.657Z,2.52
2018-10-03T15:12:18.662Z,1.6
2018-10-03T15:18:13.697Z,4.56
2018-10-03T15:24:08.714Z,0.83
2018-10-03T15:30:03.700Z,1.38
2018-10-03T15:35:58.671Z,1.47
2018-10-03T15:41:53.700Z,0.97
2018-10-03T15:47:48.723Z,1.29
2018-10-03T15:53:43.684Z,1.1
2018-10-03T15:59:38.690Z,1.1
2018-10-03T16:05:33.686Z,2.96
2018-10-03T16:11:28.709Z,1.24
2018-10-03T16:17:23.703Z,3.17
2018-10-03T16:23:18.733Z,2.13
2018-10-03T16:29:13.732Z,3.53
2018-10-03T16:35:08.722Z,7.53
2018-10-03T16:41:03.776Z,9.84
2018-10-03T16:46:58.770Z,6.77
2018-10-03T16:52:53.755Z,7.8
2018-10-03T16:58:48.733Z,8.07
2018-10-03T17:04:43.727Z,8.73
2018-10-03T17:10:38.754Z,7.05
2018-10-03T17:16:33.748Z,2.49
2018-10-03T17:22:28.736Z,2.2
2018-10-03T17:28:23.795Z,3.46
2018-10-03T17:34:18.745Z,4.19
2018-10-03T17:40:13.750Z,3.79
2018-10-03T17:46:08.811Z,4.8
2018-10-03T17:52:03.757Z,5.26
2018-10-03T17:57:58.761Z,10.12
2018-10-03T18:03:53.762Z,4.78
2018-10-03T18:09:48.816Z,3.79
2018-10-03T18:15:43.887Z,7.93
2018-10-03T18:21:38.809Z,6.58
2018-10-03T18:27:33.854Z,7.08
2018-10-03T18:33:28.778Z,3.63
2018-10-03T18:39:23.854Z,2.14
2018-10-03T18:45:18.816Z,1.36
2018-10-03T18:51:13.841Z,1.2
2018-10-03T18:57:08.828Z,1.19
2018-10-03T19:03:03.864Z,1.32
2018-10-03T19:08:58.837Z,1.83
2018-10-03T19:14:53.887Z,2.09
2018-10-03T19:20:48.885Z,1.84
2018-10-03T19:26:43.927Z,2.76
2018-10-03T19:32:38.820Z,1.47
2018-10-03T19:38:33.829Z,4.22
2018-10-03T19:44:28.861Z,1.52
2018-10-03T19:50:23.871Z,1.5
2018-10-03T19:56:18.854Z,3.33
2018-10-03T20:02:13.840Z,3.64
2018-10-03T20:08:08.882Z,2.39
2018-10-03T20:14:03.851Z,5.65
2018-10-03T20:19:58.874Z,2.94
2018-10-03T20:25:53.879Z,2.07
2018-10-03T20:31:48.889Z,1.07
2018-10-03T20:37:43.879Z,1.45
2018-10-03T20:43:38.902Z,0.77
2018-10-03T20:49:33.869Z,0.8
2018-10-03T20:55:28.879Z,0.91
2018-10-03T21:01:23.892Z,1.13
2018-10-03T21:07:18.915Z,1.99
2018-10-03T21:13:13.934Z,1.44
2018-10-03T21:19:08.932Z,2.36
2018-10-03T21:25:03.951Z,1.5
2018-10-03T21:30:58.912Z,3.63
2018-10-03T21:36:53.906Z,2.45
2018-10-03T21:42:48.906Z,2.31
2018-10-03T21:48:43.909Z,3.67
2018-10-03T21:54:38.934Z,2.76
2018-10-03T22:00:33.923Z,2.61
2018-10-03T22:06:28.956Z,1.41
2018-10-03T22:12:23.925Z,1.95
2018-10-03T22:18:18.947Z,1.51
2018-10-03T22:24:13.972Z,1.78
2018-10-03T22:30:08.990Z,0.95
2018-10-03T22:36:03.953Z,0.94
2018-10-03T22:41:58.966Z,2.48
2018-10-03T22:47:53.947Z,0.98
2018-10-03T22:53:48.952Z,2.07
2018-10-03T22:59:43.967Z,4.82
2018-10-03T23:05:38.957Z,4.13
2018-10-03T23:11:34.044Z,4.58
2018-10-03T23:17:28.960Z,3.12
2018-10-03T23:23:23.970Z,2.06
2018-10-03T23:29:18.980Z,4.46
2018-10-03T23:35:13.966Z,1.58
2018-10-03T23:41:08.985Z,3.65
2018-10-03T23:47:03.990Z,2.53
2018-10-03T23:52:58.981Z,15.67
2018-10-03T23:58:54.010Z,2.85
